»·PEaware :: N364KQ KBLH-KTOA

N364KQ :: KBLH-KTOA

FLIGHT INFORMATION

Flight Status: Arrived
Operator: Privately registered:
United States
More flights under this callsign
Pilot: Brian K. (18535)
Aircraft: CESSNA 172 SKYHAWK
(C172)
More flights by this aircraft type
Origin: KBLH Blythe
United States
Destination: KTOA Zamperini
United States
More flights between these airports :: More routes between these airports
Route:
File this flight plan on PilotEdge
Remarks:
Altitude:
(Current/Filed)
6,500ft
Speed:
(Current/Filed)
0kts
Departed: 15-Apr-18 05:29 PM
Arrived: 15-Apr-18 07:36 PM
Distance/Time
Traveled:
181nm/2:06
Distance/Time
To Go:
Arrived

Flight Plot

Page will automatically refresh every two minutes.


Map Options




Map Legend


Flown Route
Filed Route
Departure Airport
Arrival Airport
Navaid (VOR, NDB)
Fix

Horizontal Profiles

Position Reports

Time Latitude Longitude Heading Altitude Ground
Speed
15-Apr-18 17:27 33.615503 -114.706303 13 396ft 2kts
15-Apr-18 17:28 33.616577 -114.711600 269 510ft 53kts
15-Apr-18 17:29 33.614719 -114.729512 230 1239ft 51kts
15-Apr-18 17:30 33.606080 -114.746142 234 1882ft 63kts
15-Apr-18 17:31 33.600666 -114.766962 281 2531ft 73kts
15-Apr-18 17:32 33.607722 -114.790609 277 3169ft 73kts
15-Apr-18 17:33 33.614586 -114.814727 278 3775ft 76kts
15-Apr-18 17:34 33.617528 -114.839386 264 4356ft 74kts
15-Apr-18 17:35 33.618088 -114.863080 262 4904ft 73kts
15-Apr-18 17:36 33.619636 -114.886322 265 5419ft 72kts
15-Apr-18 17:37 33.626547 -114.911503 276 5915ft 77kts
15-Apr-18 17:38 33.632338 -114.937058 275 6318ft 80kts
15-Apr-18 17:39 33.636218 -114.964411 265 6466ft 86kts
15-Apr-18 17:40 33.636425 -114.993741 263 6490ft 89kts
15-Apr-18 17:41 33.641626 -115.026160 279 6324ft 105kts
15-Apr-18 17:42 33.645512 -115.060450 269 6317ft 103kts
15-Apr-18 17:43 33.649446 -115.094856 277 6306ft 103kts
15-Apr-18 17:44 33.658123 -115.128117 283 6309ft 102kts
15-Apr-18 17:45 33.664300 -115.161541 278 6304ft 103kts
15-Apr-18 17:46 33.670656 -115.195130 280 6314ft 103kts
15-Apr-18 17:47 33.676489 -115.228972 281 6347ft 103kts
15-Apr-18 17:48 33.681708 -115.262757 276 6379ft 103kts
15-Apr-18 17:49 33.687691 -115.296493 279 6411ft 103kts
15-Apr-18 17:50 33.694007 -115.329940 279 6443ft 103kts
15-Apr-18 17:51 33.697800 -115.363972 274 6473ft 103kts
15-Apr-18 17:52 33.704448 -115.397505 279 6505ft 103kts
15-Apr-18 17:53 33.710426 -115.431118 277 6533ft 103kts
15-Apr-18 17:54 33.715076 -115.465673 282 6529ft 105kts
15-Apr-18 17:55 33.721742 -115.500030 281 6532ft 106kts
15-Apr-18 17:56 33.728198 -115.529577 281 6520ft 107kts
15-Apr-18 17:57 33.733190 -115.560167 278 6527ft 106kts
15-Apr-18 17:58 33.740352 -115.594809 284 6513ft 107kts
15-Apr-18 17:59 33.748163 -115.629402 281 6493ft 107kts
15-Apr-18 18:00 33.756350 -115.662923 285 6473ft 108kts
15-Apr-18 18:01 33.761018 -115.698319 268 6453ft 108kts
15-Apr-18 18:02 33.762497 -115.731999 267 6539ft 98kts
15-Apr-18 18:03 33.765055 -115.764097 281 6537ft 100kts
15-Apr-18 18:04 33.772745 -115.796173 275 6531ft 100kts
15-Apr-18 18:05 33.775635 -115.829007 269 6525ft 98kts
15-Apr-18 18:06 33.781708 -115.861579 277 6517ft 99kts
15-Apr-18 18:07 33.786577 -115.889390 275 6503ft 100kts
15-Apr-18 18:08 33.791148 -115.921323 273 6497ft 99kts
15-Apr-18 18:09 33.796860 -115.953903 277 6489ft 100kts
15-Apr-18 18:10 33.801259 -115.979611 274 6539ft 93kts
15-Apr-18 18:11 33.807369 -116.009756 275 6521ft 94kts
15-Apr-18 18:12 33.814000 -116.039876 273 6521ft 93kts
15-Apr-18 18:13 33.817462 -116.069126 268 6524ft 91kts
15-Apr-18 18:14 33.818958 -116.099363 264 6522ft 90kts
15-Apr-18 18:15 33.823689 -116.129285 273 6509ft 92kts
15-Apr-18 18:16 33.830240 -116.164097 274 6518ft 91kts
15-Apr-18 18:17 33.833342 -116.189045 270 6512ft 91kts
15-Apr-18 18:18 33.838864 -116.217760 279 6541ft 89kts
15-Apr-18 18:19 33.840144 -116.246737 272 6552ft 86kts
15-Apr-18 18:20 33.841491 -116.275934 282 6527ft 85kts
15-Apr-18 18:21 33.845993 -116.303843 283 6490ft 86kts
15-Apr-18 18:22 33.851619 -116.332531 283 6458ft 84kts
15-Apr-18 18:23 33.855422 -116.361426 287 6377ft 87kts
15-Apr-18 18:24 33.862065 -116.388731 283 6342ft 86kts
15-Apr-18 18:25 33.867861 -116.415835 284 6331ft 86kts
15-Apr-18 18:26 33.872938 -116.442591 284 6384ft 80kts
15-Apr-18 18:27 33.877495 -116.469063 283 6418ft 80kts
15-Apr-18 18:28 33.883726 -116.494999 285 6431ft 82kts
15-Apr-18 18:29 33.890578 -116.520640 290 6461ft 79kts
15-Apr-18 18:30 33.898245 -116.545881 286 6468ft 81kts
15-Apr-18 18:31 33.905315 -116.571360 287 6493ft 80kts
15-Apr-18 18:32 33.911735 -116.596429 288 6534ft 77kts
15-Apr-18 18:33 33.917977 -116.619688 287 6488ft 85kts
15-Apr-18 18:34 33.924366 -116.645455 287 6549ft 80kts
15-Apr-18 18:35 33.930490 -116.670167 286 6561ft 81kts
15-Apr-18 18:36 33.936854 -116.695677 290 6589ft 82kts
15-Apr-18 18:37 33.943726 -116.721490 285 6610ft 83kts
15-Apr-18 18:38 33.946494 -116.747146 270 6646ft 80kts
15-Apr-18 18:39 33.945282 -116.774475 274 6593ft 82kts
15-Apr-18 18:40 33.946612 -116.802001 274 6507ft 82kts
15-Apr-18 18:41 33.946924 -116.832847 277 6328ft 95kts
15-Apr-18 18:42 33.951719 -116.863428 277 6334ft 93kts
15-Apr-18 18:43 33.951241 -116.893982 263 6386ft 92kts
15-Apr-18 18:44 33.950853 -116.924428 268 6448ft 91kts
15-Apr-18 18:45 33.949873 -116.954513 268 6505ft 91kts
15-Apr-18 18:46 33.951444 -116.981543 269 6557ft 91kts
15-Apr-18 18:47 33.951396 -117.011063 267 6658ft 88kts
15-Apr-18 18:48 33.951754 -117.040489 268 6704ft 90kts
15-Apr-18 18:49 33.952028 -117.070834 270 6694ft 92kts
15-Apr-18 18:50 33.952282 -117.101888 269 6685ft 93kts
15-Apr-18 18:51 33.952290 -117.132787 271 6663ft 94kts
15-Apr-18 18:52 33.952836 -117.164338 270 6631ft 94kts
15-Apr-18 18:53 33.953644 -117.193499 268 6592ft 96kts
15-Apr-18 18:54 33.953040 -117.224676 271 6555ft 97kts
15-Apr-18 18:55 33.952222 -117.255518 270 6516ft 98kts
15-Apr-18 18:56 33.952149 -117.287728 274 6489ft 97kts
15-Apr-18 18:57 33.952753 -117.319003 273 6463ft 97kts
15-Apr-18 18:58 33.952108 -117.351191 270 6441ft 97kts
15-Apr-18 18:59 33.952708 -117.382870 274 6431ft 96kts
15-Apr-18 19:00 33.953328 -117.414431 276 6433ft 94kts
15-Apr-18 19:01 33.954748 -117.444939 268 6432ft 93kts
15-Apr-18 19:02 33.942685 -117.472840 246 6434ft 93kts
15-Apr-18 19:03 33.931466 -117.500792 241 6417ft 94kts
15-Apr-18 19:04 33.918006 -117.527293 248 6403ft 95kts
15-Apr-18 19:05 33.911792 -117.557405 258 6269ft 96kts
15-Apr-18 19:06 33.906717 -117.587747 262 5920ft 93kts
15-Apr-18 19:07 33.899020 -117.617390 260 5596ft 92kts
15-Apr-18 19:08 33.894404 -117.646903 257 5270ft 92kts
15-Apr-18 19:09 33.887264 -117.674672 260 4944ft 91kts
15-Apr-18 19:10 33.881500 -117.700582 260 4651ft 91kts
15-Apr-18 19:11 33.875572 -117.728970 253 4469ft 90kts
15-Apr-18 19:12 33.867192 -117.755629 249 4405ft 91kts
15-Apr-18 19:13 33.858968 -117.781922 261 4360ft 89kts
15-Apr-18 19:14 33.855485 -117.806599 261 4283ft 94kts
15-Apr-18 19:15 33.851747 -117.835962 259 4268ft 93kts
15-Apr-18 19:16 33.848667 -117.866522 262 4333ft 94kts
15-Apr-18 19:17 33.846516 -117.897374 258 4420ft 95kts
15-Apr-18 19:18 33.838098 -117.924172 247 4471ft 96kts
15-Apr-18 19:19 33.828355 -117.951783 243 4505ft 95kts
15-Apr-18 19:20 33.817075 -117.979739 241 4534ft 95kts
15-Apr-18 19:21 33.806535 -118.004707 242 4565ft 94kts
15-Apr-18 19:22 33.795042 -118.029899 238 4581ft 93kts
15-Apr-18 19:23 33.784452 -118.057681 246 4495ft 92kts
15-Apr-18 19:24 33.782438 -118.088649 265 3888ft 95kts
15-Apr-18 19:25 33.780444 -118.119615 260 3139ft 93kts
15-Apr-18 19:26 33.777964 -118.149935 264 2507ft 90kts
15-Apr-18 19:27 33.776524 -118.177982 261 2147ft 81kts
15-Apr-18 19:28 33.771881 -118.205231 252 2121ft 79kts
15-Apr-18 19:29 33.768831 -118.231180 269 2268ft 75kts
15-Apr-18 19:30 33.766482 -118.256067 270 2413ft 62kts
15-Apr-18 19:31 33.764371 -118.280853 310 2173ft 82kts
15-Apr-18 19:32 33.776984 -118.299122 304 1512ft 70kts
15-Apr-18 19:33 33.787302 -118.314123 303 971ft 52kts
15-Apr-18 19:34 33.796138 -118.327591 303 497ft 47kts
15-Apr-18 19:35 33.803553 -118.339003 312 101ft 32kts
15-Apr-18 19:36 33.805950 -118.344004 290 101ft 0kts
15-Apr-18 19:37 33.806015 -118.344285 282 101ft 6kts
15-Apr-18 19:38 33.803443 -118.343911 125 101ft 23kts
15-Apr-18 19:39 33.800843 -118.340472 273 101ft 3kts
15-Apr-18 19:40 33.801951 -118.342486 299 101ft 5kts
15-Apr-18 19:41 33.802490 -118.343329 317 101ft 0kts

Navigation Log

Ident Type
1. KBLH Airport
2. KTOA Airport